Terminal Aerodrome Forecast
Issued by NWS

Home | Current Version | Previous Version | Text Only | Print | Product List | Glossary On
Versions: 1 2 3 4 5 6 7 8 9 10 11 12 13 14 15 16 17 18 19 20 21 22 23 24 25 26 27 28 29 30 31 32 33 34 35 36
000
FTUS41 KBOX 271740
TAFFMH
TAF
KFMH 271740Z 2718/2818 22018G30KT P6SM OVC015
     FM272100 23018KT P6SM OVC025
     FM280000 22016KT P6SM OVC008
     FM280700 22012KT 1SM BR OVC003 WS020/23040KT
     FM280800 21012KT 1SM BR OVC003
     FM281300 22014KT P6SM BKN003
     FM281600 21013G26KT P6SM BKN008=

USA.gov is the U.S. government's official web portal to all federal, state and local government web resources and services.